sensor_id;sensor_type;location;lat;lon;timestamp;P1;durP1;ratioP1;P2;durP2;ratioP2
23115;SDS011;11727;52.134;5.052;2022-12-05T00:00:09;35.92;;;11.65;;
23115;SDS011;11727;52.134;5.052;2022-12-05T00:02:35;38.10;;;11.85;;
23115;SDS011;11727;52.134;5.052;2022-12-05T00:05:01;27.08;;;11.02;;
23115;SDS011;11727;52.134;5.052;2022-12-05T00:07:27;37.03;;;12.25;;
23115;SDS011;11727;52.134;5.052;2022-12-05T00:09:52;30.02;;;10.77;;
23115;SDS011;11727;52.134;5.052;2022-12-05T00:12:18;33.45;;;11.48;;
23115;SDS011;11727;52.134;5.052;2022-12-05T00:14:43;30.42;;;11.85;;
23115;SDS011;11727;52.134;5.052;2022-12-05T00:17:09;23.67;;;10.25;;
23115;SDS011;11727;52.134;5.052;2022-12-05T00:19:35;28.70;;;10.30;;
23115;SDS011;11727;52.134;5.052;2022-12-05T00:22:00;29.45;;;10.63;;
23115;SDS011;11727;52.134;5.052;2022-12-05T00:24:26;29.10;;;10.80;;
23115;SDS011;11727;52.134;5.052;2022-12-05T00:26:51;31.95;;;10.20;;
23115;SDS011;11727;52.134;5.052;2022-12-05T00:29:17;25.85;;;10.18;;
23115;SDS011;11727;52.134;5.052;2022-12-05T00:31:42;24.40;;;9.50;;
23115;SDS011;11727;52.134;5.052;2022-12-05T00:34:08;26.83;;;9.77;;
23115;SDS011;11727;52.134;5.052;2022-12-05T00:36:34;30.80;;;11.23;;
23115;SDS011;11727;52.134;5.052;2022-12-05T00:39:02;28.00;;;10.55;;
23115;SDS011;11727;52.134;5.052;2022-12-05T00:41:33;28.45;;;10.95;;
23115;SDS011;11727;52.134;5.052;2022-12-05T00:43:59;31.80;;;10.95;;
23115;SDS011;11727;52.134;5.052;2022-12-05T00:46:27;35.03;;;12.33;;
23115;SDS011;11727;52.134;5.052;2022-12-05T00:48:54;32.08;;;10.65;;
23115;SDS011;11727;52.134;5.052;2022-12-05T00:51:24;34.63;;;11.32;;
23115;SDS011;11727;52.134;5.052;2022-12-05T00:53:58;28.02;;;11.25;;
23115;SDS011;11727;52.134;5.052;2022-12-05T00:56:28;30.45;;;10.90;;
23115;SDS011;11727;52.134;5.052;2022-12-05T00:58:55;35.00;;;11.23;;
23115;SDS011;11727;52.134;5.052;2022-12-05T01:01:26;37.33;;;11.45;;
23115;SDS011;11727;52.134;5.052;2022-12-05T01:03:57;30.02;;;10.68;;
23115;SDS011;11727;52.134;5.052;2022-12-05T01:06:24;31.02;;;10.98;;
23115;SDS011;11727;52.134;5.052;2022-12-05T01:08:52;26.23;;;11.18;;
23115;SDS011;11727;52.134;5.052;2022-12-05T01:13:44;30.95;;;11.30;;
23115;SDS011;11727;52.134;5.052;2022-12-05T01:16:21;30.67;;;11.48;;
23115;SDS011;11727;52.134;5.052;2022-12-05T01:18:51;29.70;;;11.32;;
23115;SDS011;11727;52.134;5.052;2022-12-05T01:21:17;31.50;;;11.48;;
23115;SDS011;11727;52.134;5.052;2022-12-05T01:23:43;29.40;;;10.23;;
23115;SDS011;11727;52.134;5.052;2022-12-05T01:26:09;32.40;;;11.30;;
23115;SDS011;11727;52.134;5.052;2022-12-05T01:28:37;26.50;;;11.00;;
23115;SDS011;11727;52.134;5.052;2022-12-05T01:31:05;29.27;;;11.18;;
23115;SDS011;11727;52.134;5.052;2022-12-05T01:33:32;35.00;;;10.80;;
23115;SDS011;11727;52.134;5.052;2022-12-05T01:35:59;29.27;;;11.27;;
23115;SDS011;11727;52.134;5.052;2022-12-05T01:38:25;31.02;;;11.18;;
23115;SDS011;11727;52.134;5.052;2022-12-05T01:41:03;30.67;;;11.63;;
23115;SDS011;11727;52.134;5.052;2022-12-05T01:43:30;26.92;;;10.80;;
23115;SDS011;11727;52.134;5.052;2022-12-05T01:45:56;38.47;;;12.75;;
23115;SDS011;11727;52.134;5.052;2022-12-05T01:48:32;33.80;;;11.88;;
23115;SDS011;11727;52.134;5.052;2022-12-05T01:53:26;33.67;;;11.07;;
23115;SDS011;11727;52.134;5.052;2022-12-05T01:55:53;29.95;;;12.48;;
23115;SDS011;11727;52.134;5.052;2022-12-05T01:58:20;29.30;;;10.93;;
23115;SDS011;11727;52.134;5.052;2022-12-05T02:00:47;31.13;;;11.43;;
23115;SDS011;11727;52.134;5.052;2022-12-05T02:03:15;31.08;;;12.82;;
23115;SDS011;11727;52.134;5.052;2022-12-05T02:05:43;29.95;;;11.13;;
23115;SDS011;11727;52.134;5.052;2022-12-05T02:08:12;29.95;;;10.38;;
23115;SDS011;11727;52.134;5.052;2022-12-05T02:10:39;33.88;;;10.60;;
23115;SDS011;11727;52.134;5.052;2022-12-05T02:15:59;31.10;;;11.38;;
23115;SDS011;11727;52.134;5.052;2022-12-05T02:18:33;31.45;;;10.70;;
23115;SDS011;11727;52.134;5.052;2022-12-05T02:24:09;30.58;;;11.80;;
23115;SDS011;11727;52.134;5.052;2022-12-05T02:29:56;30.30;;;10.80;;
23115;SDS011;11727;52.134;5.052;2022-12-05T02:37:39;34.63;;;11.15;;
23115;SDS011;11727;52.134;5.052;2022-12-05T02:40:20;29.90;;;10.98;;
23115;SDS011;11727;52.134;5.052;2022-12-05T02:43:00;27.42;;;10.45;;
23115;SDS011;11727;52.134;5.052;2022-12-05T02:45:53;29.80;;;11.23;;
23115;SDS011;11727;52.134;5.052;2022-12-05T02:48:24;28.75;;;11.95;;
23115;SDS011;11727;52.134;5.052;2022-12-05T02:51:00;33.08;;;11.57;;
23115;SDS011;11727;52.134;5.052;2022-12-05T02:53:27;35.33;;;10.90;;
23115;SDS011;11727;52.134;5.052;2022-12-05T02:55:55;33.03;;;11.65;;
23115;SDS011;11727;52.134;5.052;2022-12-05T02:58:31;33.90;;;10.45;;
23115;SDS011;11727;52.134;5.052;2022-12-05T03:01:02;28.48;;;12.25;;
23115;SDS011;11727;52.134;5.052;2022-12-05T03:03:34;27.98;;;11.20;;
23115;SDS011;11727;52.134;5.052;2022-12-05T03:06:05;39.22;;;13.18;;
23115;SDS011;11727;52.134;5.052;2022-12-05T03:08:37;30.83;;;11.02;;
23115;SDS011;11727;52.134;5.052;2022-12-05T03:11:07;40.63;;;12.20;;
23115;SDS011;11727;52.134;5.052;2022-12-05T03:13:43;29.55;;;11.07;;
23115;SDS011;11727;52.134;5.052;2022-12-05T03:16:17;29.77;;;10.95;;
23115;SDS011;11727;52.134;5.052;2022-12-05T03:22:31;30.25;;;11.52;;
23115;SDS011;11727;52.134;5.052;2022-12-05T03:25:06;31.75;;;10.82;;
23115;SDS011;11727;52.134;5.052;2022-12-05T03:30:20;32.08;;;10.52;;
23115;SDS011;11727;52.134;5.052;2022-12-05T03:38:29;23.05;;;9.68;;
23115;SDS011;11727;52.134;5.052;2022-12-05T03:41:09;23.92;;;9.43;;
23115;SDS011;11727;52.134;5.052;2022-12-05T03:43:50;24.75;;;10.02;;
23115;SDS011;11727;52.134;5.052;2022-12-05T03:51:36;23.92;;;9.07;;
23115;SDS011;11727;52.134;5.052;2022-12-05T03:54:24;27.75;;;9.82;;
23115;SDS011;11727;52.134;5.052;2022-12-05T03:56:55;27.42;;;9.18;;
23115;SDS011;11727;52.134;5.052;2022-12-05T04:01:58;28.70;;;10.32;;
23115;SDS011;11727;52.134;5.052;2022-12-05T04:04:30;22.08;;;9.43;;
23115;SDS011;11727;52.134;5.052;2022-12-05T04:07:02;23.35;;;9.98;;
23115;SDS011;11727;52.134;5.052;2022-12-05T04:09:31;29.27;;;9.98;;
23115;SDS011;11727;52.134;5.052;2022-12-05T04:12:06;27.33;;;9.70;;
23115;SDS011;11727;52.134;5.052;2022-12-05T04:14:38;27.65;;;9.93;;
23115;SDS011;11727;52.134;5.052;2022-12-05T04:17:11;26.27;;;9.00;;
23115;SDS011;11727;52.134;5.052;2022-12-05T04:19:42;26.17;;;10.27;;
23115;SDS011;11727;52.134;5.052;2022-12-05T04:22:30;22.35;;;8.20;;
23115;SDS011;11727;52.134;5.052;2022-12-05T04:24:57;29.83;;;9.63;;
23115;SDS011;11727;52.134;5.052;2022-12-05T04:27:53;24.67;;;8.45;;
23115;SDS011;11727;52.134;5.052;2022-12-05T04:30:24;25.83;;;9.52;;
23115;SDS011;11727;52.134;5.052;2022-12-05T04:33:15;29.55;;;10.15;;
23115;SDS011;11727;52.134;5.052;2022-12-05T04:41:28;20.48;;;8.00;;
23115;SDS011;11727;52.134;5.052;2022-12-05T04:44:20;30.17;;;9.02;;
23115;SDS011;11727;52.134;5.052;2022-12-05T04:46:51;23.55;;;8.80;;
23115;SDS011;11727;52.134;5.052;2022-12-05T04:49:21;23.75;;;8.88;;
23115;SDS011;11727;52.134;5.052;2022-12-05T04:51:49;25.05;;;10.30;;
23115;SDS011;11727;52.134;5.052;2022-12-05T04:54:19;25.25;;;9.90;;
23115;SDS011;11727;52.134;5.052;2022-12-05T04:56:53;25.05;;;9.63;;
23115;SDS011;11727;52.134;5.052;2022-12-05T04:59:21;28.63;;;10.65;;
23115;SDS011;11727;52.134;5.052;2022-12-05T05:01:47;25.77;;;9.60;;
23115;SDS011;11727;52.134;5.052;2022-12-05T05:04:21;27.70;;;9.30;;
23115;SDS011;11727;52.134;5.052;2022-12-05T05:06:55;27.10;;;10.95;;
23115;SDS011;11727;52.134;5.052;2022-12-05T05:09:20;31.38;;;10.55;;
23115;SDS011;11727;52.134;5.052;2022-12-05T05:11:46;21.17;;;8.77;;
23115;SDS011;11727;52.134;5.052;2022-12-05T05:14:12;22.20;;;8.50;;
23115;SDS011;11727;52.134;5.052;2022-12-05T05:16:39;30.80;;;11.10;;
23115;SDS011;11727;52.134;5.052;2022-12-05T05:19:06;24.98;;;9.60;;
23115;SDS011;11727;52.134;5.052;2022-12-05T05:21:39;34.95;;;10.43;;
23115;SDS011;11727;52.134;5.052;2022-12-05T05:24:06;27.85;;;10.45;;
23115;SDS011;11727;52.134;5.052;2022-12-05T05:26:35;21.17;;;9.70;;
23115;SDS011;11727;52.134;5.052;2022-12-05T05:29:05;34.40;;;10.95;;
23115;SDS011;11727;52.134;5.052;2022-12-05T05:31:31;27.88;;;10.82;;
23115;SDS011;11727;52.134;5.052;2022-12-05T05:33:57;29.08;;;10.32;;
23115;SDS011;11727;52.134;5.052;2022-12-05T05:36:23;27.02;;;10.77;;
23115;SDS011;11727;52.134;5.052;2022-12-05T05:38:51;27.25;;;11.98;;
23115;SDS011;11727;52.134;5.052;2022-12-05T05:41:19;32.45;;;11.43;;
23115;SDS011;11727;52.134;5.052;2022-12-05T05:43:46;26.13;;;8.82;;
23115;SDS011;11727;52.134;5.052;2022-12-05T05:46:12;28.77;;;10.55;;
23115;SDS011;11727;52.134;5.052;2022-12-05T05:48:39;26.98;;;11.02;;
23115;SDS011;11727;52.134;5.052;2022-12-05T05:51:05;28.08;;;10.43;;
23115;SDS011;11727;52.134;5.052;2022-12-05T05:53:32;33.08;;;11.73;;
23115;SDS011;11727;52.134;5.052;2022-12-05T05:56:02;27.20;;;10.25;;
23115;SDS011;11727;52.134;5.052;2022-12-05T05:58:32;22.30;;;8.90;;
23115;SDS011;11727;52.134;5.052;2022-12-05T06:01:02;31.13;;;11.02;;
23115;SDS011;11727;52.134;5.052;2022-12-05T06:03:34;28.80;;;9.25;;
23115;SDS011;11727;52.134;5.052;2022-12-05T06:06:01;22.08;;;8.65;;
23115;SDS011;11727;52.134;5.052;2022-12-05T06:08:31;22.90;;;10.07;;
23115;SDS011;11727;52.134;5.052;2022-12-05T06:10:58;33.58;;;11.68;;
23115;SDS011;11727;52.134;5.052;2022-12-05T06:13:24;33.17;;;10.25;;
23115;SDS011;11727;52.134;5.052;2022-12-05T06:15:50;24.10;;;9.80;;
23115;SDS011;11727;52.134;5.052;2022-12-05T06:18:16;29.23;;;9.82;;
23115;SDS011;11727;52.134;5.052;2022-12-05T06:20:49;26.85;;;9.20;;
23115;SDS011;11727;52.134;5.052;2022-12-05T06:23:20;21.08;;;8.13;;
23115;SDS011;11727;52.134;5.052;2022-12-05T06:25:46;27.83;;;9.70;;
23115;SDS011;11727;52.134;5.052;2022-12-05T06:28:16;24.67;;;10.82;;
23115;SDS011;11727;52.134;5.052;2022-12-05T06:30:42;27.35;;;9.68;;
23115;SDS011;11727;52.134;5.052;2022-12-05T06:33:08;26.75;;;10.20;;
23115;SDS011;11727;52.134;5.052;2022-12-05T06:35:34;25.45;;;10.07;;
23115;SDS011;11727;52.134;5.052;2022-12-05T06:37:59;26.92;;;8.95;;
23115;SDS011;11727;52.134;5.052;2022-12-05T06:40:25;26.30;;;9.50;;
23115;SDS011;11727;52.134;5.052;2022-12-05T06:42:50;27.02;;;10.63;;
23115;SDS011;11727;52.134;5.052;2022-12-05T06:45:16;27.75;;;11.05;;
23115;SDS011;11727;52.134;5.052;2022-12-05T06:47:42;27.20;;;8.88;;
23115;SDS011;11727;52.134;5.052;2022-12-05T06:50:08;25.67;;;8.88;;
23115;SDS011;11727;52.134;5.052;2022-12-05T06:52:33;31.80;;;9.18;;
23115;SDS011;11727;52.134;5.052;2022-12-05T06:54:59;20.67;;;8.98;;
23115;SDS011;11727;52.134;5.052;2022-12-05T06:57:26;29.55;;;9.73;;
23115;SDS011;11727;52.134;5.052;2022-12-05T06:59:53;24.80;;;9.48;;
23115;SDS011;11727;52.134;5.052;2022-12-05T07:02:38;24.25;;;8.23;;
23115;SDS011;11727;52.134;5.052;2022-12-05T07:05:06;23.02;;;8.85;;
23115;SDS011;11727;52.134;5.052;2022-12-05T07:07:32;24.25;;;9.68;;
23115;SDS011;11727;52.134;5.052;2022-12-05T07:09:58;23.98;;;9.70;;
23115;SDS011;11727;52.134;5.052;2022-12-05T07:12:24;19.25;;;8.00;;
23115;SDS011;11727;52.134;5.052;2022-12-05T07:14:50;23.65;;;8.90;;
23115;SDS011;11727;52.134;5.052;2022-12-05T07:17:16;26.48;;;8.27;;
23115;SDS011;11727;52.134;5.052;2022-12-05T07:19:42;23.47;;;7.20;;
23115;SDS011;11727;52.134;5.052;2022-12-05T07:22:08;22.35;;;7.93;;
23115;SDS011;11727;52.134;5.052;2022-12-05T07:24:33;19.10;;;7.15;;
23115;SDS011;11727;52.134;5.052;2022-12-05T07:26:59;18.80;;;7.32;;
23115;SDS011;11727;52.134;5.052;2022-12-05T07:29:24;17.58;;;6.90;;
23115;SDS011;11727;52.134;5.052;2022-12-05T07:31:52;18.45;;;7.25;;
23115;SDS011;11727;52.134;5.052;2022-12-05T07:34:17;21.48;;;6.38;;
23115;SDS011;11727;52.134;5.052;2022-12-05T07:36:43;18.25;;;7.05;;
23115;SDS011;11727;52.134;5.052;2022-12-05T07:39:09;18.17;;;6.82;;
23115;SDS011;11727;52.134;5.052;2022-12-05T07:41:34;18.40;;;7.32;;
23115;SDS011;11727;52.134;5.052;2022-12-05T07:44:00;15.77;;;6.53;;
23115;SDS011;11727;52.134;5.052;2022-12-05T07:46:26;16.75;;;7.00;;
23115;SDS011;11727;52.134;5.052;2022-12-05T07:48:53;15.88;;;6.97;;
23115;SDS011;11727;52.134;5.052;2022-12-05T07:51:19;13.70;;;5.97;;
23115;SDS011;11727;52.134;5.052;2022-12-05T07:53:45;15.43;;;6.90;;
23115;SDS011;11727;52.134;5.052;2022-12-05T07:56:12;18.77;;;7.10;;
23115;SDS011;11727;52.134;5.052;2022-12-05T07:58:41;18.65;;;5.53;;
23115;SDS011;11727;52.134;5.052;2022-12-05T08:01:09;14.02;;;6.15;;
23115;SDS011;11727;52.134;5.052;2022-12-05T08:03:36;12.27;;;5.47;;
23115;SDS011;11727;52.134;5.052;2022-12-05T08:06:03;19.40;;;7.03;;
23115;SDS011;11727;52.134;5.052;2022-12-05T08:08:33;17.80;;;6.95;;
23115;SDS011;11727;52.134;5.052;2022-12-05T08:11:03;17.02;;;6.07;;
23115;SDS011;11727;52.134;5.052;2022-12-05T08:13:34;15.15;;;6.28;;
23115;SDS011;11727;52.134;5.052;2022-12-05T08:16:01;15.75;;;6.13;;
23115;SDS011;11727;52.134;5.052;2022-12-05T08:18:27;13.80;;;5.75;;
23115;SDS011;11727;52.134;5.052;2022-12-05T08:20:53;14.38;;;6.07;;
23115;SDS011;11727;52.134;5.052;2022-12-05T08:23:22;15.00;;;5.90;;
23115;SDS011;11727;52.134;5.052;2022-12-05T08:25:47;15.80;;;6.05;;
23115;SDS011;11727;52.134;5.052;2022-12-05T08:28:13;11.95;;;6.25;;
23115;SDS011;11727;52.134;5.052;2022-12-05T08:30:38;10.68;;;4.85;;
23115;SDS011;11727;52.134;5.052;2022-12-05T08:33:04;17.17;;;5.95;;
23115;SDS011;11727;52.134;5.052;2022-12-05T08:35:29;13.55;;;5.82;;
23115;SDS011;11727;52.134;5.052;2022-12-05T08:37:55;17.52;;;6.78;;
23115;SDS011;11727;52.134;5.052;2022-12-05T08:40:20;13.82;;;6.15;;
23115;SDS011;11727;52.134;5.052;2022-12-05T08:42:46;15.00;;;5.45;;
23115;SDS011;11727;52.134;5.052;2022-12-05T08:45:12;15.93;;;6.15;;
23115;SDS011;11727;52.134;5.052;2022-12-05T08:47:46;9.75;;;4.68;;
23115;SDS011;11727;52.134;5.052;2022-12-05T08:50:12;13.30;;;5.53;;
23115;SDS011;11727;52.134;5.052;2022-12-05T08:52:37;10.20;;;3.75;;
23115;SDS011;11727;52.134;5.052;2022-12-05T08:55:06;13.55;;;4.93;;
23115;SDS011;11727;52.134;5.052;2022-12-05T08:57:32;11.50;;;5.07;;
23115;SDS011;11727;52.134;5.052;2022-12-05T08:59:57;11.98;;;4.97;;
23115;SDS011;11727;52.134;5.052;2022-12-05T09:02:23;11.80;;;4.20;;
23115;SDS011;11727;52.134;5.052;2022-12-05T09:04:49;7.55;;;4.05;;
23115;SDS011;11727;52.134;5.052;2022-12-05T09:07:16;12.07;;;3.88;;
23115;SDS011;11727;52.134;5.052;2022-12-05T09:09:41;7.35;;;4.13;;
23115;SDS011;11727;52.134;5.052;2022-12-05T09:12:07;8.57;;;4.53;;
23115;SDS011;11727;52.134;5.052;2022-12-05T09:14:32;7.22;;;3.95;;
23115;SDS011;11727;52.134;5.052;2022-12-05T09:16:58;9.68;;;3.88;;
23115;SDS011;11727;52.134;5.052;2022-12-05T09:19:25;9.27;;;4.78;;
23115;SDS011;11727;52.134;5.052;2022-12-05T09:21:52;8.25;;;4.20;;
23115;SDS011;11727;52.134;5.052;2022-12-05T09:24:19;6.65;;;3.22;;
23115;SDS011;11727;52.134;5.052;2022-12-05T09:26:45;7.22;;;3.30;;
23115;SDS011;11727;52.134;5.052;2022-12-05T09:29:11;7.72;;;3.83;;
23115;SDS011;11727;52.134;5.052;2022-12-05T09:31:40;6.50;;;3.10;;
23115;SDS011;11727;52.134;5.052;2022-12-05T09:34:09;6.97;;;3.55;;
23115;SDS011;11727;52.134;5.052;2022-12-05T09:36:35;16.08;;;3.97;;
23115;SDS011;11727;52.134;5.052;2022-12-05T09:39:02;5.43;;;2.78;;
23115;SDS011;11727;52.134;5.052;2022-12-05T09:50:02;6.55;;;3.33;;
23115;SDS011;11727;52.134;5.052;2022-12-05T09:55:42;9.13;;;3.50;;
23115;SDS011;11727;52.134;5.052;2022-12-05T09:58:24;5.97;;;3.30;;
23115;SDS011;11727;52.134;5.052;2022-12-05T10:00:54;6.05;;;3.25;;
23115;SDS011;11727;52.134;5.052;2022-12-05T10:03:40;8.63;;;3.55;;
23115;SDS011;11727;52.134;5.052;2022-12-05T10:11:27;5.85;;;3.15;;
23115;SDS011;11727;52.134;5.052;2022-12-05T10:14:49;4.45;;;2.30;;
23115;SDS011;11727;52.134;5.052;2022-12-05T10:17:26;5.68;;;2.90;;
23115;SDS011;11727;52.134;5.052;2022-12-05T10:22:47;5.55;;;2.53;;
23115;SDS011;11727;52.134;5.052;2022-12-05T10:25:18;6.38;;;2.53;;
23115;SDS011;11727;52.134;5.052;2022-12-05T10:27:55;6.32;;;2.72;;
23115;SDS011;11727;52.134;5.052;2022-12-05T10:30:24;5.80;;;2.92;;
23115;SDS011;11727;52.134;5.052;2022-12-05T10:35:34;9.43;;;2.60;;
23115;SDS011;11727;52.134;5.052;2022-12-05T10:38:11;5.88;;;2.60;;
23115;SDS011;11727;52.134;5.052;2022-12-05T10:40:53;4.35;;;2.03;;
23115;SDS011;11727;52.134;5.052;2022-12-05T10:43:27;4.03;;;1.75;;
23115;SDS011;11727;52.134;5.052;2022-12-05T10:45:55;4.00;;;2.15;;
23115;SDS011;11727;52.134;5.052;2022-12-05T10:48:22;5.28;;;2.28;;
23115;SDS011;11727;52.134;5.052;2022-12-05T10:50:50;5.20;;;2.35;;
23115;SDS011;11727;52.134;5.052;2022-12-05T10:53:24;3.25;;;1.98;;
23115;SDS011;11727;52.134;5.052;2022-12-05T10:55:52;5.25;;;1.92;;
23115;SDS011;11727;52.134;5.052;2022-12-05T10:58:20;3.83;;;1.80;;
23115;SDS011;11727;52.134;5.052;2022-12-05T11:01:03;2.83;;;1.50;;
23115;SDS011;11727;52.134;5.052;2022-12-05T11:03:33;3.55;;;1.95;;
23115;SDS011;11727;52.134;5.052;2022-12-05T11:06:14;4.07;;;2.08;;
23115;SDS011;11727;52.134;5.052;2022-12-05T11:08:52;4.63;;;2.15;;
23115;SDS011;11727;52.134;5.052;2022-12-05T11:13:53;3.60;;;2.00;;
23115;SDS011;11727;52.134;5.052;2022-12-05T11:16:25;2.97;;;1.55;;
23115;SDS011;11727;52.134;5.052;2022-12-05T11:18:54;5.22;;;2.03;;
23115;SDS011;11727;52.134;5.052;2022-12-05T11:21:20;3.53;;;1.75;;
23115;SDS011;11727;52.134;5.052;2022-12-05T11:23:46;7.43;;;2.70;;
23115;SDS011;11727;52.134;5.052;2022-12-05T11:26:31;3.58;;;2.03;;
23115;SDS011;11727;52.134;5.052;2022-12-05T11:28:59;4.95;;;1.83;;
23115;SDS011;11727;52.134;5.052;2022-12-05T11:31:26;5.57;;;2.42;;
23115;SDS011;11727;52.134;5.052;2022-12-05T11:33:59;4.78;;;2.17;;
23115;SDS011;11727;52.134;5.052;2022-12-05T11:36:35;2.90;;;1.65;;
23115;SDS011;11727;52.134;5.052;2022-12-05T11:39:04;4.35;;;1.98;;
23115;SDS011;11727;52.134;5.052;2022-12-05T11:47:34;5.13;;;2.28;;
23115;SDS011;11727;52.134;5.052;2022-12-05T11:50:15;6.47;;;2.10;;
23115;SDS011;11727;52.134;5.052;2022-12-05T11:53:22;7.18;;;2.25;;
23115;SDS011;11727;52.134;5.052;2022-12-05T12:16:16;7.30;;;2.47;;
23115;SDS011;11727;52.134;5.052;2022-12-05T12:18:50;3.05;;;1.83;;
23115;SDS011;11727;52.134;5.052;2022-12-05T12:21:45;4.82;;;1.98;;
23115;SDS011;11727;52.134;5.052;2022-12-05T12:24:26;7.07;;;2.38;;
23115;SDS011;11727;52.134;5.052;2022-12-05T12:27:22;5.25;;;2.10;;
23115;SDS011;11727;52.134;5.052;2022-12-05T12:30:02;5.50;;;2.05;;
23115;SDS011;11727;52.134;5.052;2022-12-05T12:46:29;3.33;;;1.63;;
23115;SDS011;11727;52.134;5.052;2022-12-05T12:49:08;4.20;;;1.80;;
23115;SDS011;11727;52.134;5.052;2022-12-05T12:52:00;5.10;;;2.40;;
23115;SDS011;11727;52.134;5.052;2022-12-05T12:57:24;5.65;;;2.50;;
23115;SDS011;11727;52.134;5.052;2022-12-05T13:02:39;5.35;;;2.58;;
23115;SDS011;11727;52.134;5.052;2022-12-05T13:05:07;5.78;;;2.10;;
23115;SDS011;11727;52.134;5.052;2022-12-05T13:07:51;5.63;;;2.20;;
23115;SDS011;11727;52.134;5.052;2022-12-05T13:12:47;4.63;;;2.30;;
23115;SDS011;11727;52.134;5.052;2022-12-05T13:15:17;7.60;;;3.08;;
23115;SDS011;11727;52.134;5.052;2022-12-05T13:17:51;8.27;;;2.75;;
23115;SDS011;11727;52.134;5.052;2022-12-05T13:20:19;5.15;;;2.42;;
23115;SDS011;11727;52.134;5.052;2022-12-05T13:22:48;6.78;;;2.33;;
23115;SDS011;11727;52.134;5.052;2022-12-05T13:25:16;6.30;;;2.40;;
23115;SDS011;11727;52.134;5.052;2022-12-05T13:27:55;5.38;;;2.35;;
23115;SDS011;11727;52.134;5.052;2022-12-05T13:30:23;7.07;;;2.35;;
23115;SDS011;11727;52.134;5.052;2022-12-05T13:33:07;7.53;;;2.78;;
23115;SDS011;11727;52.134;5.052;2022-12-05T13:35:34;8.30;;;3.00;;
23115;SDS011;11727;52.134;5.052;2022-12-05T13:38:20;14.48;;;3.13;;
23115;SDS011;11727;52.134;5.052;2022-12-05T13:41:06;11.27;;;3.47;;
23115;SDS011;11727;52.134;5.052;2022-12-05T13:43:51;11.05;;;2.92;;
23115;SDS011;11727;52.134;5.052;2022-12-05T13:46:19;8.63;;;3.27;;
23115;SDS011;11727;52.134;5.052;2022-12-05T13:48:58;5.07;;;2.63;;
23115;SDS011;11727;52.134;5.052;2022-12-05T13:51:39;5.72;;;2.47;;
23115;SDS011;11727;52.134;5.052;2022-12-05T13:54:15;7.78;;;2.72;;
23115;SDS011;11727;52.134;5.052;2022-12-05T13:56:58;4.97;;;2.13;;
23115;SDS011;11727;52.134;5.052;2022-12-05T14:13:01;6.57;;;2.92;;
23115;SDS011;11727;52.134;5.052;2022-12-05T14:15:50;6.38;;;2.72;;
23115;SDS011;11727;52.134;5.052;2022-12-05T14:18:31;6.25;;;2.70;;
23115;SDS011;11727;52.134;5.052;2022-12-05T14:32:35;6.85;;;2.67;;
23115;SDS011;11727;52.134;5.052;2022-12-05T14:35:09;7.40;;;2.50;;
23115;SDS011;11727;52.134;5.052;2022-12-05T14:37:50;7.10;;;2.60;;
23115;SDS011;11727;52.134;5.052;2022-12-05T14:42:53;5.00;;;2.08;;
23115;SDS011;11727;52.134;5.052;2022-12-05T14:45:45;8.88;;;2.67;;
23115;SDS011;11727;52.134;5.052;2022-12-05T14:50:57;6.93;;;2.53;;
23115;SDS011;11727;52.134;5.052;2022-12-05T14:58:45;5.65;;;2.53;;
23115;SDS011;11727;52.134;5.052;2022-12-05T15:01:21;11.95;;;3.13;;
23115;SDS011;11727;52.134;5.052;2022-12-05T15:09:14;7.00;;;3.00;;
23115;SDS011;11727;52.134;5.052;2022-12-05T15:12:01;7.35;;;2.47;;
23115;SDS011;11727;52.134;5.052;2022-12-05T15:14:37;8.65;;;3.03;;
23115;SDS011;11727;52.134;5.052;2022-12-05T15:17:10;5.43;;;2.78;;
23115;SDS011;11727;52.134;5.052;2022-12-05T15:19:43;5.93;;;2.78;;
23115;SDS011;11727;52.134;5.052;2022-12-05T15:22:15;9.25;;;2.85;;
23115;SDS011;11727;52.134;5.052;2022-12-05T15:24:43;3.95;;;2.10;;
23115;SDS011;11727;52.134;5.052;2022-12-05T15:27:10;7.72;;;2.92;;
23115;SDS011;11727;52.134;5.052;2022-12-05T15:29:36;4.37;;;2.30;;
23115;SDS011;11727;52.134;5.052;2022-12-05T15:32:05;4.75;;;1.95;;
23115;SDS011;11727;52.134;5.052;2022-12-05T15:34:43;8.68;;;2.55;;
23115;SDS011;11727;52.134;5.052;2022-12-05T15:39:59;5.32;;;2.85;;
23115;SDS011;11727;52.134;5.052;2022-12-05T15:42:49;7.57;;;2.72;;
23115;SDS011;11727;52.134;5.052;2022-12-05T15:48:09;8.70;;;2.45;;
23115;SDS011;11727;52.134;5.052;2022-12-05T15:50:40;6.17;;;3.00;;
23115;SDS011;11727;52.134;5.052;2022-12-05T15:53:12;5.63;;;2.25;;
23115;SDS011;11727;52.134;5.052;2022-12-05T15:56:04;9.05;;;2.92;;
23115;SDS011;11727;52.134;5.052;2022-12-05T16:01:51;6.13;;;2.22;;
23115;SDS011;11727;52.134;5.052;2022-12-05T16:04:27;7.22;;;2.85;;
23115;SDS011;11727;52.134;5.052;2022-12-05T16:07:05;5.47;;;2.38;;
23115;SDS011;11727;52.134;5.052;2022-12-05T16:09:36;4.55;;;2.50;;
23115;SDS011;11727;52.134;5.052;2022-12-05T16:12:05;4.72;;;2.30;;
23115;SDS011;11727;52.134;5.052;2022-12-05T16:14:42;5.50;;;2.08;;
23115;SDS011;11727;52.134;5.052;2022-12-05T16:17:12;5.97;;;2.70;;
23115;SDS011;11727;52.134;5.052;2022-12-05T16:19:40;6.65;;;2.13;;
23115;SDS011;11727;52.134;5.052;2022-12-05T16:27:22;5.70;;;1.98;;
23115;SDS011;11727;52.134;5.052;2022-12-05T16:30:12;7.38;;;2.33;;
23115;SDS011;11727;52.134;5.052;2022-12-05T16:32:45;7.03;;;2.70;;
23115;SDS011;11727;52.134;5.052;2022-12-05T16:45:57;10.65;;;2.25;;
23115;SDS011;11727;52.134;5.052;2022-12-05T16:48:29;8.20;;;2.65;;
23115;SDS011;11727;52.134;5.052;2022-12-05T16:53:45;11.82;;;2.78;;
23115;SDS011;11727;52.134;5.052;2022-12-05T16:56:15;6.60;;;2.45;;
23115;SDS011;11727;52.134;5.052;2022-12-05T16:58:44;7.40;;;2.67;;
23115;SDS011;11727;52.134;5.052;2022-12-05T17:01:15;6.35;;;2.72;;
23115;SDS011;11727;52.134;5.052;2022-12-05T17:03:42;4.75;;;2.00;;
23115;SDS011;11727;52.134;5.052;2022-12-05T17:06:09;7.35;;;2.97;;
23115;SDS011;11727;52.134;5.052;2022-12-05T17:08:34;5.90;;;2.30;;
23115;SDS011;11727;52.134;5.052;2022-12-05T17:11:00;5.40;;;2.38;;
23115;SDS011;11727;52.134;5.052;2022-12-05T17:13:27;5.82;;;2.47;;
23115;SDS011;11727;52.134;5.052;2022-12-05T17:15:55;5.03;;;1.90;;
23115;SDS011;11727;52.134;5.052;2022-12-05T17:18:20;3.53;;;1.73;;
23115;SDS011;11727;52.134;5.052;2022-12-05T17:20:47;6.63;;;2.47;;
23115;SDS011;11727;52.134;5.052;2022-12-05T17:23:16;7.07;;;2.53;;
23115;SDS011;11727;52.134;5.052;2022-12-05T17:25:43;3.70;;;1.70;;
23115;SDS011;11727;52.134;5.052;2022-12-05T17:28:14;8.27;;;1.65;;
23115;SDS011;11727;52.134;5.052;2022-12-05T17:30:40;3.45;;;1.73;;
23115;SDS011;11727;52.134;5.052;2022-12-05T17:33:08;4.13;;;2.10;;
23115;SDS011;11727;52.134;5.052;2022-12-05T17:35:35;7.20;;;1.95;;
23115;SDS011;11727;52.134;5.052;2022-12-05T17:38:02;4.43;;;2.47;;
23115;SDS011;11727;52.134;5.052;2022-12-05T17:40:28;3.60;;;1.48;;
23115;SDS011;11727;52.134;5.052;2022-12-05T17:42:54;3.47;;;1.77;;
23115;SDS011;11727;52.134;5.052;2022-12-05T17:45:20;4.07;;;1.58;;
23115;SDS011;11727;52.134;5.052;2022-12-05T17:47:46;2.72;;;1.40;;
23115;SDS011;11727;52.134;5.052;2022-12-05T17:50:16;4.97;;;1.52;;
23115;SDS011;11727;52.134;5.052;2022-12-05T17:52:43;2.88;;;1.50;;
23115;SDS011;11727;52.134;5.052;2022-12-05T17:55:14;3.28;;;1.55;;
23115;SDS011;11727;52.134;5.052;2022-12-05T17:57:41;4.60;;;1.92;;
23115;SDS011;11727;52.134;5.052;2022-12-05T18:00:07;2.78;;;1.40;;
23115;SDS011;11727;52.134;5.052;2022-12-05T18:02:33;7.47;;;1.75;;